Pagrindinis puslapis
METAR-TAF:

METAR-TAF

Oro uostai :

Weeze, Vokietija

platuma: 51-36-09N, ilguma: 006-08-32E, Aukštis: 32 m

Dabartinis oras

Ataskaita buvo paskelbta 22 minutes, ne 09:20 UTC
Vėjas 4 kt iš Rytų/Pietryčių, svyruoja nuo Rytų ir Pietų
Temperatūra 15°C
Drėgmė 55%
Slėgis 1029 hPa
Matomumas 10 km arba daugiau
nėra debesų žemiau 1500 m ir nėra kamuolinių lietaus debesų

METAR: EDLV 200920Z 12004KT 080V180 CAVOK 15/06 Q1029

Laikas: 11:42 (09:42 UTC)

Prognozė

Ataskaita buvo paskelbta 4 valandos ir 42 minutes, ne 05:00 UTC
Prognozė galioja nuo 20 metu 06 UTC su 21 metu 06 UTC
Vėjas 3 kt nuo kintamojo kryptimis
Matomumas 10 km arba daugiau
nėra debesų žemiau 1500 m ir nėra kamuolinių lietaus debesų
Tapsmas
nuo 20 metu 09 UTC su 20 metu 11 UTC
Vėjas 5 kt iš Šiaurės Rytų
Tapsmas
nuo 20 metu 15 UTC su 20 metu 17 UTC
Vėjas 3 kt nuo kintamojo kryptimis
Tapsmas
nuo 21 metu 00 UTC su 21 metu 03 UTC
Vėjas 5 kt iš Rytų/Pietryčių

TAF: EDLV 200500Z 2006/2106 VRB03KT CAVOK BECMG 2009/2011 05005KT BECMG 2015/2017 VRB03KT BECMG 2100/2103 11005KT

Orai ataskaitas ir orų prognozės (METAR, TAF).

turimą stotys yra geltonos ir raudonos taškus žemėlapyje.

Perkelti pele per norėdami pamatyti stoties vardą.

Tada spustelėkite, norėdami matyti oro stebėjimo ir prognozės.

Norėdami pakeisti žemėlapį: spustelėkite ant žalios mygtukų su juodo kryžiaus žemyn,; žalią mygtuką su brūkšneliu, jei norite nutolinti; arba žalių rodyklių gretimoms žemėlapius.


METAR-TAF: